Time;durP1;ratioP1;P1;durP2;ratioP2;P2;SDS_P1;SDS_P2;PMS_P1;PMS_P2;Temp;Humidity;BMP_temperature;BMP_pressure;BME280_temperature;BME280_humidity;BME280_pressure;Samples;Min_cycle;Max_cycle;Signal;HPM_P1;HPM_P2
2021/06/05 00:01:50;;;;;;;1.15;0.40;;;18.50;99.90;;;;;;5076338;28;20025;-80
2021/06/05 00:04:18;;;;;;;0.77;0.30;;;18.50;99.90;;;;;;5076940;28;20029;-80
2021/06/05 00:06:44;;;;;;;1.30;0.40;;;18.50;99.90;;;;;;5058803;28;20028;-81
2021/06/05 00:09:11;;;;;;;1.00;0.43;;;18.50;99.90;;;;;;5076610;28;20048;-81
2021/06/05 00:11:37;;;;;;;0.85;0.50;;;18.50;99.90;;;;;;5077093;28;20027;-82
2021/06/05 00:14:06;;;;;;;1.20;0.40;;;18.50;99.90;;;;;;5073697;28;20029;-83
2021/06/05 00:16:39;;;;;;;1.45;0.98;;;18.60;99.90;;;;;;5097565;28;20028;-82
2021/06/05 00:19:06;;;;;;;1.65;0.40;;;18.50;99.90;;;;;;5078760;28;20028;-81
2021/06/05 00:21:32;;;;;;;1.27;0.50;;;18.50;99.90;;;;;;5097441;28;20024;-83
2021/06/05 00:23:59;;;;;;;1.33;0.40;;;18.40;99.90;;;;;;5097345;28;20028;-82
2021/06/05 00:26:25;;;;;;;0.85;0.40;;;18.40;99.90;;;;;;5077098;28;20037;-81
2021/06/05 00:28:51;;;;;;;1.42;0.40;;;18.40;99.90;;;;;;5077066;28;20048;-85
2021/06/05 00:31:17;;;;;;;0.82;0.30;;;18.30;99.90;;;;;;5076950;28;20373;-81
2021/06/05 00:33:43;;;;;;;1.70;0.70;;;18.10;99.90;;;;;;5073710;28;20024;-82
2021/06/05 00:36:10;;;;;;;0.93;0.30;;;18.10;99.90;;;;;;5083742;28;20081;-83
2021/06/05 00:38:36;;;;;;;1.52;0.43;;;17.90;99.90;;;;;;5087899;28;20016;-80
2021/06/05 00:41:04;;;;;;;2.28;0.40;;;17.70;99.90;;;;;;5094505;28;20032;-82
2021/06/05 00:43:34;;;;;;;2.15;0.50;;;17.50;99.90;;;;;;5090175;28;20024;-81
2021/06/05 00:46:00;;;;;;;1.38;0.50;;;17.50;99.90;;;;;;5076164;28;20036;-83
2021/06/05 00:48:26;;;;;;;0.60;0.40;;;17.50;99.90;;;;;;5058717;28;20032;-81
2021/06/05 00:50:53;;;;;;;1.70;0.55;;;17.40;99.90;;;;;;5074825;28;20073;-82
2021/06/05 00:53:22;;;;;;;2.03;0.45;;;17.30;99.90;;;;;;5076237;28;20166;-82
2021/06/05 00:55:50;;;;;;;1.35;0.70;;;17.30;99.90;;;;;;5074682;28;20030;-80
2021/06/05 00:58:17;;;;;;;1.23;0.40;;;17.10;99.90;;;;;;5074527;28;20078;-82
2021/06/05 01:00:49;;;;;;;2.05;0.47;;;17.10;99.90;;;;;;5057747;28;20020;-83
2021/06/05 01:03:15;;;;;;;2.15;0.60;;;17.00;99.90;;;;;;5076378;28;20020;-82
2021/06/05 01:05:43;;;;;;;1.75;0.52;;;16.90;99.90;;;;;;5075745;28;20016;-81
2021/06/05 01:08:11;;;;;;;2.38;0.63;;;16.80;99.90;;;;;;5075747;28;20455;-82
2021/06/05 01:10:41;;;;;;;1.27;0.47;;;16.80;99.90;;;;;;5075942;28;20488;-81
2021/06/05 01:13:15;;;;;;;1.10;0.50;;;16.80;99.90;;;;;;5057627;28;20058;-83
2021/06/05 01:15:58;;;;;;;1.60;0.50;;;16.90;99.90;;;;;;5071760;28;20039;-83
2021/06/05 01:18:35;;;;;;;2.17;0.50;;;16.90;99.90;;;;;;5075987;28;20449;-81
2021/06/05 01:21:49;;;;;;;1.95;0.50;;;16.80;99.90;;;;;;5057708;28;20070;-82
2021/06/05 01:24:17;;;;;;;2.40;0.73;;;16.80;99.90;;;;;;5033246;28;20051;-83
2021/06/05 01:26:55;;;;;;;1.15;0.50;;;16.70;99.90;;;;;;5095949;28;20058;-83
2021/06/05 01:29:25;;;;;;;3.05;0.68;;;16.70;99.90;;;;;;5097048;28;20418;-83
2021/06/05 01:31:54;;;;;;;2.13;0.57;;;16.70;99.90;;;;;;5097520;28;20453;-83
2021/06/05 01:34:22;;;;;;;2.92;0.60;;;16.60;99.90;;;;;;5078290;28;20127;-83
2021/06/05 01:36:51;;;;;;;0.95;0.40;;;16.60;99.90;;;;;;5075459;28;20043;-84
2021/06/05 01:39:22;;;;;;;3.40;0.60;;;16.60;99.90;;;;;;5075952;28;20024;-83
2021/06/05 01:41:49;;;;;;;2.45;0.57;;;16.70;99.90;;;;;;5077175;28;20040;-83
2021/06/05 01:44:16;;;;;;;3.08;0.70;;;16.70;99.90;;;;;;5080383;28;20028;-83
2021/06/05 01:46:46;;;;;;;1.77;0.45;;;16.70;99.90;;;;;;5081015;28;20031;-83
2021/06/05 01:49:12;;;;;;;1.55;0.63;;;16.60;99.90;;;;;;5078698;28;20020;-82
2021/06/05 01:51:41;;;;;;;1.33;0.40;;;16.60;99.90;;;;;;5085404;28;20024;-83
2021/06/05 01:54:12;;;;;;;1.85;0.80;;;16.60;99.90;;;;;;5075845;28;20056;-82
2021/06/05 01:56:43;;;;;;;2.00;0.50;;;16.60;99.90;;;;;;5077272;28;20111;-83
2021/06/05 01:59:12;;;;;;;2.20;0.60;;;16.70;99.90;;;;;;5058447;28;20430;-81
2021/06/05 02:01:38;;;;;;;1.83;0.60;;;16.80;99.90;;;;;;5076144;28;20169;-83
2021/06/05 02:04:04;;;;;;;1.30;0.40;;;16.80;99.90;;;;;;5076084;28;20039;-83
2021/06/05 02:06:30;;;;;;;0.88;0.40;;;16.80;99.90;;;;;;5076178;28;20024;-82
2021/06/05 02:08:57;;;;;;;2.42;0.50;;;16.90;99.90;;;;;;5075532;28;20562;-82
2021/06/05 02:11:26;;;;;;;1.45;0.40;;;16.90;99.90;;;;;;5075621;28;20452;-83
2021/06/05 02:14:03;;;;;;;1.35;0.40;;;17.00;99.90;;;;;;5077838;28;21064;-82
2021/06/05 02:16:35;;;;;;;0.75;0.40;;;16.90;99.90;;;;;;5088991;28;20028;-83
2021/06/05 02:19:09;;;;;;;2.05;0.50;;;17.00;99.90;;;;;;5091272;28;20073;-85
2021/06/05 02:21:36;;;;;;;1.08;0.30;;;17.00;99.90;;;;;;5086814;28;20044;-84
2021/06/05 02:24:12;;;;;;;1.25;0.43;;;17.00;99.90;;;;;;5095110;28;20048;-84
2021/06/05 02:26:40;;;;;;;1.63;0.70;;;17.00;99.90;;;;;;5095856;28;20505;-82
2021/06/05 02:29:10;;;;;;;0.93;0.43;;;17.10;99.90;;;;;;5094073;28;20494;-83
2021/06/05 02:31:37;;;;;;;1.73;0.40;;;17.10;99.90;;;;;;5075574;28;20029;-84
2021/06/05 02:34:06;;;;;;;1.50;0.45;;;17.10;99.90;;;;;;5075204;28;20028;-83
2021/06/05 02:36:32;;;;;;;1.75;0.40;;;17.10;99.90;;;;;;5093813;28;20016;-83
2021/06/05 02:38:58;;;;;;;0.95;0.30;;;17.10;99.90;;;;;;5091868;28;20021;-83
2021/06/05 02:41:24;;;;;;;2.08;0.32;;;17.10;99.90;;;;;;5075515;28;20020;-82
2021/06/05 02:43:55;;;;;;;0.80;0.35;;;17.10;99.90;;;;;;5063993;28;20024;-83
2021/06/05 02:46:29;;;;;;;1.45;0.30;;;17.10;99.90;;;;;;5095574;28;20020;-82
2021/06/05 02:48:59;;;;;;;2.83;0.55;;;17.00;99.90;;;;;;5091999;28;20020;-83
2021/06/05 02:51:29;;;;;;;0.90;0.43;;;17.00;99.90;;;;;;5057598;28;20029;-83
2021/06/05 02:53:54;;;;;;;0.82;0.30;;;17.00;99.90;;;;;;5095016;28;20070;-81
2021/06/05 02:56:21;;;;;;;3.17;0.40;;;17.00;99.90;;;;;;5076889;28;20028;-84
2021/06/05 02:58:47;;;;;;;1.35;0.40;;;16.90;99.90;;;;;;5084080;28;20071;-82
2021/06/05 03:01:14;;;;;;;1.75;0.50;;;16.90;99.90;;;;;;5075085;28;20021;-84
2021/06/05 03:03:40;;;;;;;1.10;0.40;;;16.90;99.90;;;;;;5074662;28;20028;-84
2021/06/05 03:06:07;;;;;;;1.63;0.50;;;16.90;99.90;;;;;;5074468;28;20028;-82
2021/06/05 03:08:35;;;;;;;1.23;0.40;;;17.00;99.90;;;;;;5074612;28;20028;-83
2021/06/05 03:11:06;;;;;;;0.98;0.45;;;17.00;99.90;;;;;;5074724;28;20392;-82
2021/06/05 03:13:31;;;;;;;1.35;0.40;;;17.00;99.90;;;;;;5074115;28;20021;-83
2021/06/05 03:15:57;;;;;;;2.53;0.57;;;17.10;99.90;;;;;;5074227;28;20392;-83
2021/06/05 03:18:24;;;;;;;2.35;0.43;;;17.20;99.90;;;;;;5073156;28;20021;-82
2021/06/05 03:20:52;;;;;;;1.77;0.40;;;17.20;99.90;;;;;;5074624;28;20074;-82
2021/06/05 03:23:21;;;;;;;0.68;0.38;;;17.20;99.90;;;;;;5071557;28;20056;-84
2021/06/05 03:25:46;;;;;;;1.00;0.40;;;17.20;99.90;;;;;;5077515;28;20056;-83
2021/06/05 03:28:13;;;;;;;1.23;0.50;;;17.20;99.90;;;;;;5095022;28;20028;-82
2021/06/05 03:30:39;;;;;;;2.05;0.50;;;17.10;99.90;;;;;;5094888;28;20030;-83
2021/06/05 03:33:06;;;;;;;1.88;0.40;;;17.10;99.90;;;;;;5077401;28;20107;-83
2021/06/05 03:35:32;;;;;;;1.98;0.50;;;17.10;99.90;;;;;;5073856;28;20029;-82
2021/06/05 03:37:58;;;;;;;1.38;0.40;;;17.00;99.90;;;;;;5074776;28;20059;-82
2021/06/05 03:40:29;;;;;;;3.03;0.50;;;16.90;99.90;;;;;;5075199;28;20033;-81
2021/06/05 03:42:57;;;;;;;2.05;0.50;;;16.90;99.90;;;;;;5094694;28;20108;-83
2021/06/05 03:45:23;;;;;;;1.75;0.52;;;16.70;99.90;;;;;;5072909;28;20086;-81
2021/06/05 03:47:49;;;;;;;1.15;0.45;;;16.70;99.90;;;;;;5074202;28;20032;-83
2021/06/05 03:50:18;;;;;;;1.90;0.30;;;16.70;99.90;;;;;;5074222;28;20024;-82
2021/06/05 03:52:44;;;;;;;1.80;0.50;;;16.70;99.90;;;;;;5074181;28;20075;-83
2021/06/05 03:55:10;;;;;;;3.03;0.52;;;16.70;99.90;;;;;;5055834;28;20020;-84
2021/06/05 03:57:36;;;;;;;1.92;0.50;;;16.70;99.90;;;;;;5074607;28;20083;-82
2021/06/05 04:00:08;;;;;;;1.70;0.55;;;16.70;99.90;;;;;;5073974;28;20021;-81
2021/06/05 04:02:34;;;;;;;1.48;0.63;;;16.70;99.90;;;;;;5056665;28;20025;-83
2021/06/05 04:04:59;;;;;;;1.27;0.40;;;16.70;99.90;;;;;;5074417;28;20052;-83
2021/06/05 04:07:25;;;;;;;2.25;0.65;;;16.70;99.90;;;;;;5075375;28;20056;-84
2021/06/05 04:09:51;;;;;;;2.72;0.50;;;16.70;99.90;;;;;;5075165;28;20040;-82
2021/06/05 04:12:16;;;;;;;1.23;0.50;;;16.80;99.90;;;;;;5074113;28;20029;-83
2021/06/05 04:14:42;;;;;;;1.73;0.40;;;16.80;99.90;;;;;;5072403;28;20029;-83
2021/06/05 04:17:09;;;;;;;1.10;0.43;;;16.80;99.90;;;;;;5075919;28;20043;-82
2021/06/05 04:19:36;;;;;;;1.35;0.40;;;16.90;99.90;;;;;;5077812;28;20063;-83
2021/06/05 04:22:03;;;;;;;1.58;0.40;;;17.00;99.90;;;;;;5077474;28;20185;-84
2021/06/05 04:24:29;;;;;;;3.70;0.70;;;17.00;99.90;;;;;;5077925;28;20090;-84
2021/06/05 04:26:54;;;;;;;1.52;0.50;;;17.00;99.90;;;;;;5083068;28;20028;-84
2021/06/05 04:29:20;;;;;;;2.22;0.60;;;17.10;99.90;;;;;;5059257;28;20480;-84
2021/06/05 04:31:46;;;;;;;1.42;0.60;;;17.20;99.90;;;;;;5077357;28;20473;-84
2021/06/05 04:34:12;;;;;;;0.90;0.30;;;17.20;99.90;;;;;;5059011;28;20029;-84
2021/06/05 04:36:37;;;;;;;2.65;0.47;;;17.20;99.90;;;;;;5058732;28;20484;-83
2021/06/05 04:39:05;;;;;;;2.10;0.55;;;17.30;99.90;;;;;;5077282;28;20025;-82
2021/06/05 04:41:30;;;;;;;1.30;0.40;;;17.30;99.90;;;;;;5059470;28;20384;-83
2021/06/05 04:43:56;;;;;;;3.55;0.50;;;17.40;99.90;;;;;;5085555;28;20028;-85
2021/06/05 04:46:22;;;;;;;2.47;0.63;;;17.40;99.90;;;;;;5078669;28;20469;-83
2021/06/05 04:48:48;;;;;;;1.83;0.60;;;17.40;99.90;;;;;;5076211;28;20020;-83
2021/06/05 04:51:18;;;;;;;1.63;0.57;;;17.50;99.90;;;;;;5058929;28;20412;-83
2021/06/05 04:53:43;;;;;;;1.77;0.50;;;17.50;99.90;;;;;;5077317;28;20024;-84
2021/06/05 04:56:10;;;;;;;1.70;0.75;;;17.60;99.90;;;;;;5075642;28;20388;-84
2021/06/05 04:58:36;;;;;;;1.85;0.50;;;17.60;99.90;;;;;;5077213;28;20887;-83
2021/06/05 05:01:02;;;;;;;2.33;0.60;;;17.60;99.90;;;;;;5077644;28;20024;-84
2021/06/05 05:03:30;;;;;;;1.20;0.40;;;17.60;99.90;;;;;;5076710;28;20024;-84
2021/06/05 05:05:59;;;;;;;0.80;0.40;;;17.60;99.90;;;;;;5076975;28;20024;-82
2021/06/05 05:08:25;;;;;;;1.27;0.45;;;17.70;99.90;;;;;;5075656;28;20123;-85
2021/06/05 05:10:52;;;;;;;2.13;0.60;;;17.60;99.90;;;;;;5093679;28;20068;-82
2021/06/05 05:13:25;;;;;;;1.17;0.43;;;17.60;99.90;;;;;;5108100;28;20073;-85
2021/06/05 05:15:52;;;;;;;1.38;0.52;;;17.60;99.90;;;;;;5119131;28;20063;-85
2021/06/05 05:18:19;;;;;;;1.10;0.40;;;17.60;99.90;;;;;;5098523;22;20044;-82
2021/06/05 05:20:45;;;;;;;1.13;0.52;;;17.60;99.90;;;;;;5095426;28;20028;-82
2021/06/05 05:23:12;;;;;;;2.60;0.80;;;17.70;99.90;;;;;;5077564;28;20020;-82
2021/06/05 05:25:39;;;;;;;1.55;0.52;;;17.70;99.90;;;;;;5092272;28;20092;-82
2021/06/05 05:28:06;;;;;;;3.78;0.77;;;17.60;99.90;;;;;;5075919;28;20033;-82
2021/06/05 05:30:34;;;;;;;1.83;0.63;;;17.70;99.90;;;;;;5076651;28;20031;-82
2021/06/05 05:33:00;;;;;;;2.17;0.82;;;17.60;99.90;;;;;;5095516;28;20107;-82
2021/06/05 05:35:26;;;;;;;1.63;0.57;;;17.50;99.90;;;;;;5078010;28;20059;-82
2021/06/05 05:37:52;;;;;;;1.48;0.50;;;17.50;99.90;;;;;;5078573;28;20027;-81
2021/06/05 05:40:24;;;;;;;4.30;0.73;;;17.50;99.90;;;;;;5071056;28;20025;-82
2021/06/05 05:42:50;;;;;;;2.60;0.90;;;17.50;99.90;;;;;;5076829;28;20059;-84
2021/06/05 05:45:16;;;;;;;4.45;0.95;;;17.60;99.90;;;;;;5096411;28;20020;-83
2021/06/05 05:47:42;;;;;;;2.92;0.60;;;17.60;99.90;;;;;;5092548;28;20021;-82
2021/06/05 05:50:11;;;;;;;1.90;0.70;;;17.70;99.90;;;;;;5097362;28;20081;-82
2021/06/05 05:52:36;;;;;;;2.35;0.82;;;17.70;99.90;;;;;;5079437;28;20399;-82
2021/06/05 05:55:05;;;;;;;3.53;0.90;;;17.70;99.90;;;;;;5098334;28;20028;-83
2021/06/05 05:57:31;;;;;;;2.20;0.63;;;17.80;99.90;;;;;;5085149;28;20084;-82
2021/06/05 05:59:57;;;;;;;2.22;0.80;;;17.80;99.90;;;;;;5075530;28;20515;-83
2021/06/05 06:02:22;;;;;;;1.35;0.70;;;18.00;99.90;;;;;;5075245;28;20024;-83
2021/06/05 06:04:48;;;;;;;1.33;0.57;;;18.00;99.90;;;;;;5074837;28;20041;-83
2021/06/05 06:07:14;;;;;;;1.17;0.60;;;18.20;99.90;;;;;;5095171;28;20107;-83
2021/06/05 06:09:39;;;;;;;1.85;0.85;;;18.10;99.90;;;;;;5095498;28;20027;-82
2021/06/05 06:12:06;;;;;;;1.80;0.60;;;18.20;99.90;;;;;;5093161;28;20388;-82
2021/06/05 06:14:32;;;;;;;1.20;0.60;;;18.30;99.90;;;;;;5074724;28;20059;-82
2021/06/05 06:17:03;;;;;;;2.78;0.70;;;18.40;99.90;;;;;;5073595;28;20025;-84
2021/06/05 06:19:29;;;;;;;1.85;0.73;;;18.50;99.90;;;;;;5075112;28;20025;-83
2021/06/05 06:21:55;;;;;;;3.28;0.90;;;18.60;99.90;;;;;;5072018;28;20365;-83
2021/06/05 06:24:20;;;;;;;2.97;0.90;;;18.50;99.90;;;;;;5074259;28;20480;-83
2021/06/05 06:26:46;;;;;;;2.28;0.90;;;18.30;99.90;;;;;;5073062;28;20032;-83
2021/06/05 06:29:16;;;;;;;2.28;0.80;;;18.30;99.90;;;;;;5074496;28;20396;-81
2021/06/05 06:31:45;;;;;;;2.25;1.00;;;18.30;99.90;;;;;;5094528;28;20034;-83
2021/06/05 06:34:11;;;;;;;3.00;0.95;;;18.40;99.90;;;;;;5076241;28;20042;-83
2021/06/05 06:36:39;;;;;;;2.90;1.30;;;18.40;99.90;;;;;;5095365;28;20028;-83
2021/06/05 06:39:06;;;;;;;1.83;0.90;;;18.40;99.90;;;;;;5074347;28;20066;-83
2021/06/05 06:41:32;;;;;;;2.70;1.00;;;18.40;99.90;;;;;;5076125;28;20101;-83
2021/06/05 06:44:01;;;;;;;2.15;1.00;;;18.40;99.90;;;;;;5093698;28;20020;-83
2021/06/05 06:46:31;;;;;;;3.63;1.17;;;18.60;99.90;;;;;;5072621;28;20100;-83
2021/06/05 06:48:59;;;;;;;1.45;0.70;;;18.90;99.90;;;;;;5074752;28;20029;-84
2021/06/05 06:51:25;;;;;;;1.88;0.85;;;19.20;99.90;;;;;;5056130;28;20052;-84
2021/06/05 06:53:51;;;;;;;1.38;0.70;;;19.20;99.90;;;;;;5072345;28;20024;-84
2021/06/05 06:56:17;;;;;;;2.83;0.75;;;19.30;99.90;;;;;;5074682;28;20024;-83
2021/06/05 06:58:43;;;;;;;2.30;0.65;;;19.40;99.90;;;;;;5073468;28;20059;-83
2021/06/05 07:01:12;;;;;;;1.80;0.50;;;19.50;99.90;;;;;;5072575;28;20029;-84
2021/06/05 07:03:38;;;;;;;1.17;0.30;;;19.60;99.90;;;;;;5087295;28;20047;-83
2021/06/05 07:06:08;;;;;;;2.17;0.47;;;19.60;99.90;;;;;;5079519;28;20012;-84
2021/06/05 07:08:37;;;;;;;4.70;0.50;;;19.70;99.90;;;;;;5094018;28;20155;-84
2021/06/05 07:11:13;;;;;;;2.50;0.40;;;19.90;99.90;;;;;;5080453;28;20070;-84
2021/06/05 07:13:39;;;;;;;2.05;0.55;;;20.00;99.90;;;;;;5087961;28;20044;-83
2021/06/05 07:16:05;;;;;;;2.00;0.40;;;20.00;99.90;;;;;;5067500;28;20109;-84
2021/06/05 07:18:33;;;;;;;1.30;0.40;;;20.20;99.90;;;;;;5089503;28;20075;-84
2021/06/05 07:21:17;;;;;;;3.05;0.52;;;20.30;99.90;;;;;;5084573;28;20028;-84
2021/06/05 07:23:44;;;;;;;2.33;0.50;;;20.40;99.90;;;;;;5089986;28;20028;-85
2021/06/05 07:26:13;;;;;;;1.67;0.45;;;20.50;99.90;;;;;;5092497;28;20047;-84
2021/06/05 07:28:43;;;;;;;1.70;0.50;;;20.70;99.90;;;;;;5090266;28;20451;-84
2021/06/05 07:31:12;;;;;;;1.20;0.43;;;21.10;99.90;;;;;;5073617;28;20081;-84
2021/06/05 07:33:38;;;;;;;1.13;0.50;;;21.50;99.90;;;;;;5091422;28;20057;-83
2021/06/05 07:36:06;;;;;;;2.72;0.47;;;21.90;99.90;;;;;;5073298;28;20059;-83
2021/06/05 07:38:32;;;;;;;2.85;0.55;;;22.00;99.90;;;;;;5075067;28;20034;-83
2021/06/05 07:40:59;;;;;;;1.13;0.40;;;21.60;99.90;;;;;;5091001;28;20106;-83
2021/06/05 07:43:27;;;;;;;1.52;0.32;;;21.60;99.90;;;;;;5073324;28;20065;-83
2021/06/05 07:45:55;;;;;;;1.63;0.40;;;21.70;99.90;;;;;;5072359;28;20062;-83
2021/06/05 07:48:22;;;;;;;1.23;0.40;;;21.60;99.90;;;;;;5091512;28;20024;-80
2021/06/05 07:50:48;;;;;;;0.77;0.30;;;21.60;99.90;;;;;;5096891;28;20502;-80
2021/06/05 07:53:13;;;;;;;1.42;0.45;;;21.40;99.90;;;;;;5082343;28;20028;-78
2021/06/05 07:55:40;;;;;;;2.60;0.50;;;21.30;99.90;;;;;;5084267;28;20020;-80
2021/06/05 07:58:06;;;;;;;1.35;0.50;;;21.20;99.90;;;;;;5081505;28;20031;-82
2021/06/05 08:00:33;;;;;;;2.45;0.50;;;21.20;99.90;;;;;;5077756;28;20021;-82
2021/06/05 08:02:59;;;;;;;1.63;0.40;;;21.20;99.90;;;;;;5088976;28;20103;-82
2021/06/05 08:05:26;;;;;;;1.40;0.52;;;21.10;99.90;;;;;;5079821;28;20024;-83
2021/06/05 08:07:52;;;;;;;2.00;0.60;;;21.10;99.90;;;;;;5076058;28;20404;-83
2021/06/05 08:10:21;;;;;;;1.40;0.40;;;21.00;99.90;;;;;;5059877;28;20432;-83
2021/06/05 08:12:47;;;;;;;2.13;0.30;;;21.10;99.90;;;;;;5073754;28;20115;-83
2021/06/05 08:15:20;;;;;;;1.73;0.40;;;21.00;99.90;;;;;;5091459;28;20207;-83
2021/06/05 08:17:46;;;;;;;1.60;0.60;;;20.90;99.90;;;;;;5093061;28;20040;-83
2021/06/05 08:20:14;;;;;;;1.65;0.40;;;20.70;99.90;;;;;;5082278;28;20360;-82
2021/06/05 08:22:40;;;;;;;1.25;0.55;;;20.50;99.90;;;;;;5076674;28;20050;-82
2021/06/05 08:25:08;;;;;;;1.23;0.43;;;20.40;99.90;;;;;;5093413;28;20437;-82
2021/06/05 08:27:34;;;;;;;2.15;0.60;;;20.30;99.90;;;;;;5069461;28;20518;-81
2021/06/05 08:30:00;;;;;;;2.75;0.47;;;20.30;99.90;;;;;;5075565;28;20036;-81
2021/06/05 08:32:26;;;;;;;1.63;0.50;;;20.30;99.90;;;;;;5084978;28;20028;-81
2021/06/05 08:34:52;;;;;;;2.50;0.57;;;20.30;99.90;;;;;;5095059;28;20027;-83
2021/06/05 08:37:18;;;;;;;2.10;0.50;;;20.30;99.90;;;;;;5094788;28;20396;-83
2021/06/05 08:39:43;;;;;;;1.38;0.70;;;20.40;99.90;;;;;;5094184;28;20217;-81
2021/06/05 08:42:19;;;;;;;1.85;0.70;;;20.50;99.90;;;;;;5095026;28;20020;-82
2021/06/05 08:44:49;;;;;;;1.38;0.35;;;20.60;99.90;;;;;;5096917;28;20058;-83
2021/06/05 08:47:29;;;;;;;1.25;0.50;;;20.70;99.90;;;;;;5097160;28;20024;-81
2021/06/05 08:49:55;;;;;;;1.65;0.50;;;20.80;99.90;;;;;;5084309;28;20037;-83
2021/06/05 08:52:28;;;;;;;1.35;0.40;;;21.00;99.90;;;;;;5068600;28;20026;-81
2021/06/05 08:55:11;;;;;;;2.40;0.40;;;21.20;99.90;;;;;;5080299;28;20035;-82
2021/06/05 08:57:57;;;;;;;3.97;0.98;;;21.30;99.90;;;;;;5081412;28;20118;-83
2021/06/05 09:00:26;;;;;;;1.25;0.40;;;21.50;99.90;;;;;;5072881;28;20044;-82
2021/06/05 09:03:03;;;;;;;2.55;0.60;;;21.60;99.90;;;;;;5075564;28;20066;-83
2021/06/05 09:05:37;;;;;;;1.35;0.40;;;21.70;99.90;;;;;;5058962;28;20058;-83
2021/06/05 09:08:04;;;;;;;0.90;0.35;;;21.80;99.90;;;;;;5057668;28;20032;-83
2021/06/05 09:10:30;;;;;;;1.48;0.40;;;21.80;99.90;;;;;;5076607;28;20058;-82
2021/06/05 09:12:56;;;;;;;1.15;0.50;;;21.90;99.90;;;;;;5077242;28;20024;-83
2021/06/05 09:15:31;;;;;;;1.48;0.43;;;21.80;99.90;;;;;;5058284;28;20059;-83
2021/06/05 09:18:00;;;;;;;1.65;0.50;;;22.00;99.90;;;;;;5076741;28;20043;-83
2021/06/05 09:21:01;;;;;;;1.60;0.40;;;22.10;99.90;;;;;;5059330;28;20040;-82
2021/06/05 09:23:38;;;;;;;1.15;0.40;;;22.10;99.90;;;;;;5076357;28;20469;-82
2021/06/05 09:26:28;;;;;;;0.88;0.50;;;22.30;99.90;;;;;;5076710;28;20494;-82
2021/06/05 09:29:16;;;;;;;3.28;0.80;;;22.20;99.90;;;;;;5077006;28;20013;-82
2021/06/05 09:31:52;;;;;;;1.38;0.35;;;22.00;99.90;;;;;;5076504;28;20020;-82
2021/06/05 09:34:18;;;;;;;2.45;0.60;;;21.90;99.90;;;;;;5076197;28;20512;-83
2021/06/05 09:36:43;;;;;;;0.93;0.40;;;21.80;99.90;;;;;;5076659;28;20051;-81
2021/06/05 09:39:13;;;;;;;0.98;0.40;;;21.70;99.90;;;;;;5078182;28;20008;-83
2021/06/05 09:41:49;;;;;;;1.88;0.50;;;21.80;99.90;;;;;;5078251;28;20020;-83
2021/06/05 09:44:26;;;;;;;3.03;0.52;;;22.00;99.90;;;;;;5076748;28;20028;-83
2021/06/05 09:46:58;;;;;;;2.75;0.40;;;22.10;99.90;;;;;;5095932;28;20032;-83
2021/06/05 09:49:40;;;;;;;0.75;0.32;;;22.00;99.90;;;;;;5096667;28;20020;-83
2021/06/05 09:52:27;;;;;;;1.75;0.50;;;22.20;99.90;;;;;;5070767;28;20454;-82
2021/06/05 09:54:58;;;;;;;3.20;0.73;;;22.30;99.90;;;;;;5079081;28;20036;-82
2021/06/05 09:57:26;;;;;;;2.03;0.50;;;22.30;99.90;;;;;;5059612;28;20046;-81
2021/06/05 10:00:16;;;;;;;0.80;0.30;;;22.10;99.90;;;;;;5088248;28;20043;-83
2021/06/05 10:02:49;;;;;;;2.60;0.50;;;22.10;99.90;;;;;;5088032;28;20024;-83
2021/06/05 10:05:30;;;;;;;1.33;0.32;;;22.20;99.90;;;;;;5092709;28;20021;-82
2021/06/05 10:08:01;;;;;;;1.30;0.50;;;22.20;99.90;;;;;;5094783;28;20027;-82
2021/06/05 10:10:41;;;;;;;1.13;0.40;;;22.20;99.90;;;;;;5087627;28;20025;-83
2021/06/05 10:13:16;;;;;;;1.13;0.47;;;22.20;99.90;;;;;;5076159;28;20039;-83
2021/06/05 10:15:59;;;;;;;1.60;0.32;;;22.30;99.90;;;;;;5095516;28;20025;-83
2021/06/05 10:18:32;;;;;;;1.38;0.50;;;22.30;99.90;;;;;;5076236;28;20519;-82
2021/06/05 10:21:45;;;;;;;2.80;0.55;;;22.20;99.90;;;;;;5087385;28;20032;-82
2021/06/05 10:24:24;;;;;;;1.88;0.40;;;22.20;99.90;;;;;;5032887;28;20032;-83
2021/06/05 10:26:51;;;;;;;0.82;0.40;;;21.80;99.90;;;;;;5087305;28;20039;-82
2021/06/05 10:29:32;;;;;;;1.52;0.50;;;21.50;99.90;;;;;;5091509;28;20093;-82
2021/06/05 10:32:01;;;;;;;1.83;0.57;;;21.30;99.90;;;;;;5080178;28;20397;-82
2021/06/05 10:35:05;;;;;;;1.60;0.60;;;21.30;99.90;;;;;;5079024;28;20028;-83
2021/06/05 10:37:36;;;;;;;1.80;0.60;;;21.30;99.90;;;;;;5091520;28;20024;-81
2021/06/05 10:40:05;;;;;;;2.95;0.60;;;21.30;99.90;;;;;;5074610;28;20089;-82
2021/06/05 10:42:40;;;;;;;2.30;0.60;;;21.30;99.90;;;;;;5077356;28;20024;-82
2021/06/05 10:45:12;;;;;;;1.35;0.65;;;21.40;99.90;;;;;;5092045;28;20039;-82
2021/06/05 10:48:03;;;;;;;1.23;0.60;;;21.50;99.90;;;;;;5088217;28;20047;-82
2021/06/05 10:50:35;;;;;;;4.22;0.80;;;21.70;99.90;;;;;;5092019;28;20090;-82
2021/06/05 10:53:09;;;;;;;1.77;0.68;;;21.70;99.90;;;;;;5093109;28;20126;-82
2021/06/05 10:55:45;;;;;;;2.10;0.55;;;21.60;99.90;;;;;;5092019;28;20092;-82
2021/06/05 10:58:26;;;;;;;2.63;0.50;;;21.60;99.90;;;;;;5093173;28;20020;-83
2021/06/05 11:00:56;;;;;;;1.27;0.57;;;21.80;99.90;;;;;;5094195;28;20020;-82
2021/06/05 11:03:22;;;;;;;2.28;0.70;;;21.70;99.90;;;;;;5070475;28;20190;-82
2021/06/05 11:06:08;;;;;;;1.88;0.60;;;21.80;99.90;;;;;;5072710;28;20058;-82
2021/06/05 11:08:37;;;;;;;1.40;0.50;;;21.70;99.90;;;;;;5072991;28;20028;-83
2021/06/05 11:11:02;;;;;;;3.35;0.63;;;21.70;99.90;;;;;;5063283;28;20404;-82
2021/06/05 11:13:35;;;;;;;1.33;0.50;;;21.90;99.90;;;;;;5089614;28;20027;-82
2021/06/05 11:16:05;;;;;;;1.63;0.60;;;21.80;99.90;;;;;;5089503;28;20369;-82
2021/06/05 11:19:05;;;;;;;2.05;0.50;;;21.90;99.90;;;;;;5092916;28;20039;-82
2021/06/05 11:21:30;;;;;;;2.20;0.50;;;22.10;99.90;;;;;;5093584;28;20098;-82
2021/06/05 11:23:56;;;;;;;2.40;0.52;;;22.20;99.90;;;;;;5081952;28;20029;-82
2021/06/05 11:26:37;;;;;;;2.05;0.50;;;22.40;99.90;;;;;;5093142;28;20024;-83
2021/06/05 11:29:22;;;;;;;2.38;0.50;;;22.60;99.90;;;;;;5093903;28;20023;-83
2021/06/05 11:31:55;;;;;;;1.42;0.40;;;22.70;99.90;;;;;;5096569;28;20095;-83
2021/06/05 11:34:32;;;;;;;2.08;0.70;;;23.00;99.90;;;;;;5094929;28;20072;-83
2021/06/05 11:37:13;;;;;;;2.25;0.60;;;23.00;99.90;;;;;;5096698;28;20024;-83
2021/06/05 11:39:45;;;;;;;1.52;0.32;;;23.30;99.90;;;;;;5088513;28;20043;-83
2021/06/05 11:42:20;;;;;;;1.38;0.28;;;23.40;99.90;;;;;;5086648;28;20055;-80
2021/06/05 11:45:15;;;;;;;1.00;0.40;;;23.50;99.90;;;;;;5072060;28;20220;-86
2021/06/05 11:47:43;;;;;;;0.90;0.40;;;23.60;99.90;;;;;;5068182;28;20024;-84
2021/06/05 11:50:10;;;;;;;1.27;0.40;;;23.70;99.90;;;;;;5091647;28;20032;-84
2021/06/05 11:53:33;;;;;;;1.20;0.40;;;23.50;99.90;;;;;;5090416;28;20028;-84
2021/06/05 11:56:07;;;;;;;1.45;0.40;;;23.20;99.90;;;;;;5016725;28;20125;-84
2021/06/05 11:58:35;;;;;;;0.95;0.40;;;23.00;99.90;;;;;;5000329;28;20164;-84
2021/06/05 12:01:03;;;;;;;2.38;0.60;;;22.80;99.90;;;;;;5065807;28;20037;-84
2021/06/05 12:03:39;;;;;;;1.50;0.57;;;22.60;99.90;;;;;;5087943;28;20114;-83
2021/06/05 12:06:11;;;;;;;1.48;0.40;;;22.40;99.90;;;;;;5075509;28;20050;-83
2021/06/05 12:08:36;;;;;;;1.35;0.52;;;22.40;99.90;;;;;;5095132;28;20056;-84
2021/06/05 12:11:32;;;;;;;2.25;0.60;;;22.20;99.90;;;;;;5093857;28;20031;-84
2021/06/05 12:14:14;;;;;;;1.15;0.50;;;22.10;99.90;;;;;;5095080;28;20051;-84
2021/06/05 12:16:49;;;;;;;2.47;0.60;;;22.10;99.90;;;;;;5079192;28;20161;-84
2021/06/05 12:19:15;;;;;;;1.73;0.50;;;22.10;99.90;;;;;;5092900;28;20012;-84
2021/06/05 12:21:42;;;;;;;1.38;0.45;;;22.00;99.90;;;;;;5089363;28;20020;-84
2021/06/05 12:24:22;;;;;;;1.70;0.40;;;22.10;99.90;;;;;;5071764;28;20020;-84
2021/06/05 12:26:58;;;;;;;2.03;0.40;;;22.30;99.90;;;;;;5089440;28;20043;-83
2021/06/05 12:29:31;;;;;;;1.08;0.30;;;22.70;99.90;;;;;;5073276;28;20016;-82
2021/06/05 12:32:17;;;;;;;1.52;0.50;;;23.10;99.90;;;;;;5072184;28;20028;-88
2021/06/05 12:34:44;;;;;;;2.35;0.40;;;23.10;99.90;;;;;;5093303;28;20070;-83
2021/06/05 12:37:20;;;;;;;0.82;0.35;;;23.50;99.90;;;;;;5071828;28;20098;-82
2021/06/05 12:39:55;;;;;;;0.50;0.22;;;23.80;99.90;;;;;;5091856;28;20035;-82
2021/06/05 12:42:28;;;;;;;0.40;0.20;;;23.90;99.90;;;;;;5085949;28;20055;-83
2021/06/05 12:45:00;;;;;;;1.00;0.30;;;24.50;99.90;;;;;;5092034;28;20025;-82
2021/06/05 12:47:32;;;;;;;1.30;0.38;;;24.90;99.90;;;;;;5096826;28;20059;-82
2021/06/05 12:49:58;;;;;;;0.95;0.20;;;25.60;99.90;;;;;;5094009;28;20107;-84
2021/06/05 12:52:28;;;;;;;0.22;0.20;;;25.90;99.90;;;;;;5081190;28;20032;-83
2021/06/05 12:55:11;;;;;;;0.88;0.15;;;26.60;98.50;;;;;;5082072;28;20020;-82
2021/06/05 12:57:45;;;;;;;0.45;0.10;;;26.40;97.50;;;;;;5085182;28;20028;-84
2021/06/05 13:00:24;;;;;;;1.13;0.28;;;26.40;96.80;;;;;;5076770;28;20020;-84
2021/06/05 13:02:52;;;;;;;0.60;0.22;;;26.20;96.30;;;;;;5082506;28;20116;-83
2021/06/05 13:05:19;;;;;;;0.40;0.17;;;25.60;95.30;;;;;;5096312;28;20059;-84